createdAt,value
2018-09-21T00:01:51.794Z,6.30
2018-09-21T00:04:20.608Z,6.17
2018-09-21T00:06:49.513Z,6.03
2018-09-21T00:09:18.219Z,5.87
2018-09-21T00:11:46.970Z,6.20
2018-09-21T00:14:15.643Z,5.80
2018-09-21T00:16:44.380Z,6.77
2018-09-21T00:19:13.195Z,6.27
2018-09-21T00:21:41.857Z,5.60
2018-09-21T00:24:10.471Z,6.20
2018-09-21T00:26:39.082Z,6.47
2018-09-21T00:29:07.673Z,6.20
2018-09-21T00:31:36.318Z,5.77
2018-09-21T00:34:04.958Z,5.93
2018-09-21T00:36:33.563Z,6.13
2018-09-21T00:39:02.171Z,6.10
2018-09-21T00:41:30.795Z,5.40
2018-09-21T00:43:59.394Z,6.60
2018-09-21T00:46:28.085Z,6.03
2018-09-21T00:48:56.674Z,5.53
2018-09-21T00:51:25.287Z,6.73
2018-09-21T00:53:53.883Z,6.20
2018-09-21T00:56:22.495Z,5.87
2018-09-21T00:58:51.155Z,6.00
2018-09-21T01:01:42.766Z,6.07
2018-09-21T01:04:11.371Z,5.57
2018-09-21T01:06:39.999Z,5.90
2018-09-21T01:09:10.482Z,6.23
2018-09-21T01:11:39.535Z,6.00
2018-09-21T01:14:17.925Z,5.87
2018-09-21T01:16:46.538Z,5.20
2018-09-21T01:19:15.151Z,5.43
2018-09-21T01:21:43.762Z,5.30
2018-09-21T01:24:12.360Z,5.73
2018-09-21T01:26:40.982Z,5.90
2018-09-21T01:29:09.637Z,6.10
2018-09-21T01:31:38.342Z,5.50
2018-09-21T01:34:06.990Z,5.33
2018-09-21T01:36:35.635Z,5.53
2018-09-21T01:39:05.190Z,6.10
2018-09-21T01:41:33.807Z,5.63
2018-09-21T01:44:02.418Z,6.57
2018-09-21T01:46:31.023Z,6.63
2018-09-21T01:48:59.665Z,5.40
2018-09-21T01:51:28.536Z,5.43
2018-09-21T01:53:57.117Z,5.60
2018-09-21T01:56:25.730Z,5.33
2018-09-21T01:58:54.330Z,5.93
2018-09-21T02:01:22.924Z,5.50
2018-09-21T02:03:51.568Z,5.60
2018-09-21T02:06:20.174Z,5.80
2018-09-21T02:08:48.792Z,5.73
2018-09-21T02:11:17.447Z,5.80
2018-09-21T02:13:46.077Z,5.63
2018-09-21T02:16:14.675Z,6.00
2018-09-21T02:18:43.312Z,5.87
2018-09-21T02:21:11.906Z,5.47
2018-09-21T02:23:40.520Z,5.33
2018-09-21T02:26:09.101Z,6.13
2018-09-21T02:28:37.723Z,5.60
2018-09-21T02:31:06.775Z,5.40
2018-09-21T02:33:35.417Z,5.40
2018-09-21T02:36:04.021Z,6.20
2018-09-21T02:38:32.643Z,5.70
2018-09-21T02:41:01.231Z,5.30
2018-09-21T02:43:29.831Z,5.57
2018-09-21T02:45:58.418Z,5.30
2018-09-21T02:48:27.031Z,5.67
2018-09-21T02:50:55.679Z,6.10
2018-09-21T02:53:24.287Z,5.37
2018-09-21T02:55:52.875Z,5.20
2018-09-21T02:58:21.489Z,6.07
2018-09-21T03:00:50.224Z,5.10
2018-09-21T03:03:18.753Z,5.70
2018-09-21T03:05:47.405Z,5.80
2018-09-21T03:08:16.015Z,5.73
2018-09-21T03:10:44.616Z,6.20
2018-09-21T03:13:13.273Z,5.20
2018-09-21T03:15:41.886Z,5.40
2018-09-21T03:18:10.500Z,5.60
2018-09-21T03:20:39.126Z,5.50
2018-09-21T03:23:07.739Z,5.60
2018-09-21T03:25:36.351Z,5.30
2018-09-21T03:28:04.970Z,5.87
2018-09-21T03:30:33.565Z,6.20
2018-09-21T03:33:02.202Z,5.80
2018-09-21T03:35:30.786Z,5.90
2018-09-21T03:37:59.462Z,5.40
2018-09-21T03:40:28.055Z,5.60
2018-09-21T03:42:56.666Z,6.00
2018-09-21T03:45:25.302Z,5.80
2018-09-21T03:47:53.912Z,5.53
2018-09-21T03:50:22.497Z,5.23
2018-09-21T03:52:51.124Z,5.90
2018-09-21T03:55:19.724Z,6.00
2018-09-21T03:57:48.329Z,5.53
2018-09-21T04:00:16.948Z,5.63
2018-09-21T04:02:45.574Z,6.03
2018-09-21T04:05:14.193Z,5.80
2018-09-21T04:07:42.778Z,5.30
2018-09-21T04:10:11.408Z,5.10
2018-09-21T04:12:39.999Z,5.83
2018-09-21T04:15:09.032Z,5.63
2018-09-21T04:17:37.646Z,5.00
2018-09-21T04:20:06.411Z,5.77
2018-09-21T04:22:35.009Z,5.37
2018-09-21T04:25:04.293Z,6.27
2018-09-21T04:27:32.928Z,5.70
2018-09-21T04:30:01.571Z,5.63
2018-09-21T04:32:30.189Z,6.17
2018-09-21T04:34:58.846Z,5.60
2018-09-21T04:37:27.435Z,5.73
2018-09-21T04:39:56.051Z,5.60
2018-09-21T04:42:24.648Z,5.80
2018-09-21T04:44:53.271Z,5.77
2018-09-21T04:47:21.857Z,5.30
2018-09-21T04:49:50.517Z,5.53
2018-09-21T04:52:19.151Z,5.57
2018-09-21T04:54:47.750Z,5.20
2018-09-21T04:57:16.436Z,5.33
2018-09-21T04:59:45.050Z,6.13
2018-09-21T05:02:13.698Z,6.10
2018-09-21T05:04:42.312Z,5.37
2018-09-21T05:07:10.906Z,5.67
2018-09-21T05:09:39.560Z,6.40
2018-09-21T05:12:08.152Z,5.67
2018-09-21T05:14:36.770Z,5.90
2018-09-21T05:17:05.388Z,5.83
2018-09-21T05:19:34.014Z,6.43
2018-09-21T05:22:02.623Z,6.13
2018-09-21T05:24:31.260Z,5.90
2018-09-21T05:26:59.875Z,5.50
2018-09-21T05:29:28.488Z,5.43
2018-09-21T05:31:57.103Z,5.60
2018-09-21T05:34:25.789Z,5.70
2018-09-21T05:36:54.371Z,5.67
2018-09-21T05:39:22.990Z,5.10
2018-09-21T05:41:51.592Z,5.60
2018-09-21T05:44:20.201Z,6.03
2018-09-21T05:46:48.812Z,5.57
2018-09-21T05:49:17.451Z,6.00
2018-09-21T05:51:46.070Z,5.00
2018-09-21T05:54:14.684Z,5.47
2018-09-21T05:56:44.257Z,5.77
2018-09-21T05:59:12.862Z,5.80
2018-09-21T06:01:41.458Z,6.10
2018-09-21T06:04:10.074Z,6.00
2018-09-21T06:06:38.732Z,5.63
2018-09-21T06:09:10.172Z,5.00
2018-09-21T06:11:38.833Z,6.47
2018-09-21T06:14:07.901Z,5.23
2018-09-21T06:16:36.552Z,6.30
2018-09-21T06:19:05.255Z,5.73
2018-09-21T06:21:34.025Z,5.10
2018-09-21T06:24:02.694Z,6.00
2018-09-21T06:26:31.324Z,5.60
2018-09-21T06:28:59.932Z,6.00
2018-09-21T06:31:28.577Z,5.80
2018-09-21T06:33:57.184Z,5.57
2018-09-21T06:36:25.805Z,5.80
2018-09-21T06:38:54.409Z,6.20
2018-09-21T06:41:23.092Z,5.83
2018-09-21T06:43:51.698Z,6.03
2018-09-21T06:46:20.328Z,5.70
2018-09-21T06:48:48.934Z,5.43
2018-09-21T06:51:17.558Z,5.33
2018-09-21T06:53:46.158Z,6.13
2018-09-21T06:56:14.823Z,6.13
2018-09-21T06:58:43.463Z,6.53
2018-09-21T07:01:12.094Z,5.57
2018-09-21T07:03:40.704Z,5.80
2018-09-21T07:06:09.379Z,5.70
2018-09-21T07:08:37.974Z,6.23
2018-09-21T07:11:06.608Z,6.23
2018-09-21T07:13:35.227Z,6.47
2018-09-21T07:16:03.846Z,6.23
2018-09-21T07:18:32.446Z,6.23
2018-09-21T07:21:01.072Z,6.23
2018-09-21T07:23:29.669Z,5.77
2018-09-21T07:25:58.276Z,6.20
2018-09-21T07:28:26.888Z,5.80
2018-09-21T07:30:55.578Z,6.03
2018-09-21T07:33:24.190Z,5.63
2018-09-21T07:35:52.827Z,6.33
2018-09-21T07:38:21.433Z,5.67
2018-09-21T07:40:50.048Z,5.57
2018-09-21T07:43:18.657Z,6.60
2018-09-21T07:45:47.291Z,5.43
2018-09-21T07:48:15.889Z,5.83
2018-09-21T07:50:44.488Z,5.33
2018-09-21T07:53:13.071Z,5.73
2018-09-21T07:55:41.683Z,5.80
2018-09-21T07:58:10.273Z,6.20
2018-09-21T08:00:38.890Z,5.00
2018-09-21T08:03:07.473Z,5.23
2018-09-21T08:05:36.273Z,5.23
2018-09-21T08:08:05.802Z,5.47
2018-09-21T08:10:34.402Z,5.27
2018-09-21T08:13:03.071Z,5.03
2018-09-21T08:15:32.230Z,5.37
2018-09-21T08:18:00.835Z,5.33
2018-09-21T08:20:29.454Z,6.10
2018-09-21T08:22:58.118Z,5.30
2018-09-21T08:25:26.722Z,5.40
2018-09-21T08:27:55.327Z,5.90
2018-09-21T08:30:23.922Z,5.30
2018-09-21T08:32:52.566Z,5.30
2018-09-21T08:35:21.149Z,5.27
2018-09-21T08:37:49.783Z,5.50
2018-09-21T08:40:18.412Z,5.43
2018-09-21T08:42:47.043Z,5.20
2018-09-21T08:45:15.658Z,4.80
2018-09-21T08:47:44.266Z,5.30
2018-09-21T08:50:12.871Z,5.13
2018-09-21T08:52:41.474Z,5.10
2018-09-21T08:55:10.051Z,6.03
2018-09-21T08:57:38.663Z,5.80
2018-09-21T09:00:07.279Z,4.87
2018-09-21T09:02:35.893Z,5.50
2018-09-21T09:05:04.599Z,4.77
2018-09-21T09:07:33.216Z,4.90
2018-09-21T09:10:01.811Z,4.73
2018-09-21T09:12:30.448Z,5.83
2018-09-21T09:14:59.046Z,5.17
2018-09-21T09:17:27.687Z,4.97
2018-09-21T09:19:56.279Z,4.80
2018-09-21T09:22:24.895Z,5.53
2018-09-21T09:24:55.063Z,5.47
2018-09-21T09:27:25.032Z,5.27
2018-09-21T09:29:56.912Z,4.77
2018-09-21T09:32:31.847Z,5.70
2018-09-21T09:35:06.142Z,4.87
2018-09-21T09:37:38.940Z,5.30
2018-09-21T09:40:10.939Z,5.13
2018-09-21T09:42:41.447Z,4.70
2018-09-21T09:45:12.083Z,5.40
2018-09-21T09:47:41.864Z,4.70
2018-09-21T09:50:16.128Z,4.90
2018-09-21T09:52:47.954Z,5.07
2018-09-21T09:55:18.918Z,5.77
2018-09-21T09:57:49.858Z,4.90
2018-09-21T10:00:27.280Z,5.23
2018-09-21T10:02:58.178Z,5.60
2018-09-21T10:05:27.691Z,5.50
2018-09-21T10:08:02.510Z,5.40
2018-09-21T10:10:32.174Z,5.10
2018-09-21T10:13:03.807Z,5.37
2018-09-21T10:15:33.517Z,5.00
2018-09-21T10:18:03.937Z,4.97
2018-09-21T10:20:35.398Z,5.13
2018-09-21T10:23:05.484Z,4.33
2018-09-21T10:25:36.851Z,4.83
2018-09-21T10:28:08.744Z,4.87
2018-09-21T10:30:43.921Z,5.47
2018-09-21T10:33:14.382Z,5.70
2018-09-21T10:35:44.944Z,5.27
2018-09-21T10:38:19.490Z,5.60
2018-09-21T10:40:48.900Z,5.80
2018-09-21T10:43:18.744Z,5.40
2018-09-21T10:45:48.967Z,5.60
2018-09-21T10:48:20.188Z,5.43
2018-09-21T10:50:51.190Z,4.47
2018-09-21T10:53:22.371Z,4.80
2018-09-21T10:55:52.555Z,4.97
2018-09-21T10:58:23.150Z,4.77
2018-09-21T11:00:55.827Z,5.40
2018-09-21T11:03:27.914Z,5.40
2018-09-21T11:05:58.153Z,5.60
2018-09-21T11:08:31.083Z,5.77
2018-09-21T11:11:02.612Z,5.50
2018-09-21T11:13:34.442Z,6.30
2018-09-21T11:16:04.297Z,5.23
2018-09-21T11:18:35.313Z,5.77
2018-09-21T11:21:05.259Z,5.10
2018-09-21T11:23:35.175Z,4.80
2018-09-21T11:26:05.736Z,5.40
2018-09-21T11:28:39.378Z,5.23
2018-09-21T11:31:10.022Z,4.90
2018-09-21T11:33:40.863Z,5.40
2018-09-21T11:36:14.608Z,5.07
2018-09-21T11:38:46.502Z,4.80
2018-09-21T11:41:20.136Z,4.90
2018-09-21T11:43:50.137Z,5.10
2018-09-21T11:46:21.559Z,4.83
2018-09-21T11:48:51.346Z,5.70
2018-09-21T11:51:22.402Z,5.20
2018-09-21T11:53:52.934Z,4.67
2018-09-21T11:56:23.621Z,5.00
2018-09-21T11:58:58.766Z,5.03
2018-09-21T12:01:28.886Z,5.43
2018-09-21T12:04:04.926Z,6.80
2018-09-21T12:06:35.146Z,7.03
2018-09-21T12:09:07.297Z,6.50
2018-09-21T12:11:37.818Z,6.73
2018-09-21T12:14:08.225Z,6.60
2018-09-21T12:16:38.723Z,4.70
2018-09-21T12:19:11.308Z,3.43
2018-09-21T12:21:47.196Z,3.53
2018-09-21T12:24:22.082Z,2.20
2018-09-21T12:26:54.720Z,2.20
2018-09-21T12:29:28.335Z,2.63
2018-09-21T12:32:00.532Z,2.43
2018-09-21T12:34:32.098Z,1.40
2018-09-21T12:37:09.461Z,2.10
2018-09-21T12:39:40.438Z,2.20
2018-09-21T12:42:13.823Z,1.97
2018-09-21T12:44:47.030Z,2.30
2018-09-21T12:47:23.271Z,2.10
2018-09-21T12:49:52.648Z,2.10
2018-09-21T12:52:24.338Z,1.87
2018-09-21T12:54:53.908Z,2.17
2018-09-21T12:57:28.223Z,2.63
2018-09-21T13:00:09.513Z,2.73
2018-09-21T13:05:47.043Z,1.90
2018-09-21T13:08:18.723Z,2.73
2018-09-21T13:10:48.502Z,2.37
2018-09-21T13:13:22.693Z,2.20
2018-09-21T13:16:02.479Z,2.40
2018-09-21T13:18:35.415Z,2.20
2018-09-21T13:21:06.170Z,2.20
2018-09-21T13:23:35.570Z,2.07
2018-09-21T13:26:06.148Z,2.93
2018-09-21T13:28:38.599Z,2.77
2018-09-21T13:34:08.264Z,2.40
2018-09-21T13:36:39.675Z,2.20
2018-09-21T13:39:14.841Z,2.70
2018-09-21T13:41:50.041Z,2.00
2018-09-21T13:44:22.376Z,1.90
2018-09-21T13:46:54.099Z,1.73
2018-09-21T13:49:23.629Z,1.80
2018-09-21T13:51:58.280Z,2.30
2018-09-21T13:54:34.382Z,2.30
2018-09-21T13:57:08.413Z,2.10
2018-09-21T13:59:36.996Z,2.20
2018-09-21T14:02:05.626Z,1.90
2018-09-21T14:04:34.221Z,2.30
2018-09-21T14:07:02.864Z,2.47
2018-09-21T14:09:31.513Z,2.10
2018-09-21T14:12:00.150Z,2.10
2018-09-21T14:14:28.747Z,2.30
2018-09-21T14:16:57.371Z,2.40
2018-09-21T14:19:26.015Z,2.30
2018-09-21T14:21:54.642Z,2.90
2018-09-21T14:24:23.291Z,2.47
2018-09-21T14:26:51.901Z,2.40
2018-09-21T14:29:20.535Z,2.20
2018-09-21T14:31:49.188Z,2.60
2018-09-21T14:34:17.797Z,1.90
2018-09-21T14:36:46.401Z,2.47
2018-09-21T14:39:14.985Z,2.70
2018-09-21T14:41:43.604Z,2.73
2018-09-21T14:44:12.263Z,2.40
2018-09-21T14:46:40.908Z,2.47
2018-09-21T14:49:09.526Z,2.47
2018-09-21T14:51:38.140Z,2.73
2018-09-21T14:54:06.743Z,2.20
2018-09-21T14:56:35.361Z,2.43
2018-09-21T14:59:04.017Z,2.93
2018-09-21T15:01:32.644Z,2.43
2018-09-21T15:04:01.245Z,2.40
2018-09-21T15:06:29.862Z,2.50
2018-09-21T15:08:58.462Z,2.40
2018-09-21T15:11:27.127Z,2.10
2018-09-21T15:13:55.946Z,2.90
2018-09-21T15:16:24.584Z,2.60
2018-09-21T15:18:53.179Z,2.33
2018-09-21T15:21:21.790Z,2.40
2018-09-21T15:23:50.370Z,2.57
2018-09-21T15:26:18.994Z,2.20
2018-09-21T15:28:47.690Z,2.60
2018-09-21T15:31:16.407Z,2.37
2018-09-21T15:33:44.992Z,2.67
2018-09-21T15:36:13.618Z,2.10
2018-09-21T15:38:42.220Z,2.10
2018-09-21T15:41:10.899Z,2.17
2018-09-21T15:43:39.531Z,2.30
2018-09-21T15:46:08.162Z,2.07
2018-09-21T15:48:36.751Z,2.63
2018-09-21T15:51:05.367Z,2.70
2018-09-21T15:53:33.968Z,2.20
2018-09-21T15:56:02.702Z,2.30
2018-09-21T15:58:31.330Z,2.50
2018-09-21T16:00:59.944Z,2.37
2018-09-21T16:03:28.578Z,2.47
2018-09-21T16:05:57.205Z,2.47
2018-09-21T16:08:25.813Z,2.43
2018-09-21T16:10:54.415Z,2.23
2018-09-21T16:13:53.792Z,2.03
2018-09-21T16:16:22.476Z,2.10
2018-09-21T16:18:51.122Z,2.60
2018-09-21T16:21:19.776Z,2.27
2018-09-21T16:23:48.409Z,2.60
2018-09-21T16:26:17.003Z,2.23
2018-09-21T16:28:45.651Z,2.60
2018-09-21T16:31:14.315Z,2.37
2018-09-21T16:33:42.932Z,2.60
2018-09-21T16:36:11.741Z,2.87
2018-09-21T16:38:40.403Z,1.93
2018-09-21T16:41:09.000Z,2.20
2018-09-21T16:43:37.626Z,2.70
2018-09-21T16:46:06.312Z,2.33
2018-09-21T16:48:34.937Z,3.03
2018-09-21T16:51:03.539Z,2.07
2018-09-21T16:53:32.159Z,2.50
2018-09-21T16:56:00.779Z,2.17
2018-09-21T16:58:29.399Z,1.90
2018-09-21T17:00:57.994Z,1.73
2018-09-21T17:03:26.637Z,2.33
2018-09-21T17:05:55.257Z,2.37
2018-09-21T17:08:23.877Z,2.13
2018-09-21T17:10:52.467Z,1.83
2018-09-21T17:13:21.114Z,2.30
2018-09-21T17:15:49.747Z,2.30
2018-09-21T17:18:18.391Z,1.80
2018-09-21T17:20:46.970Z,1.60
2018-09-21T17:23:15.584Z,1.50
2018-09-21T17:25:44.290Z,1.60
2018-09-21T17:28:14.128Z,1.60
2018-09-21T17:30:42.718Z,2.07
2018-09-21T17:33:11.341Z,1.63
2018-09-21T17:35:40.024Z,1.80
2018-09-21T17:38:08.680Z,2.00
2018-09-21T17:40:37.285Z,1.93
2018-09-21T17:43:06.290Z,1.70
2018-09-21T17:45:34.905Z,2.10
2018-09-21T17:48:03.546Z,1.83
2018-09-21T17:50:32.161Z,1.47
2018-09-21T17:53:00.753Z,1.60
2018-09-21T17:55:29.376Z,1.70
2018-09-21T17:57:57.976Z,1.53
2018-09-21T18:00:26.589Z,1.50
2018-09-21T18:02:55.189Z,2.00
2018-09-21T18:05:23.806Z,1.93
2018-09-21T18:07:52.407Z,1.60
2018-09-21T18:10:21.019Z,1.80
2018-09-21T18:12:49.610Z,1.50
2018-09-21T18:15:18.218Z,1.63
2018-09-21T18:17:46.822Z,1.90
2018-09-21T18:20:15.442Z,2.30
2018-09-21T18:22:44.174Z,1.70
2018-09-21T18:25:12.824Z,2.10
2018-09-21T18:27:41.420Z,1.70
2018-09-21T18:30:10.036Z,2.03
2018-09-21T18:32:38.749Z,2.00
2018-09-21T18:35:07.379Z,1.60
2018-09-21T18:37:35.961Z,1.90
2018-09-21T18:40:04.795Z,1.30
2018-09-21T18:42:33.411Z,1.90
2018-09-21T18:45:02.017Z,1.60
2018-09-21T18:47:30.642Z,1.20
2018-09-21T18:49:59.512Z,1.30
2018-09-21T18:52:28.097Z,2.03
2018-09-21T18:54:56.721Z,1.20
2018-09-21T18:57:25.331Z,1.37
2018-09-21T18:59:53.923Z,1.40
2018-09-21T19:02:22.534Z,1.40
2018-09-21T19:04:51.112Z,1.70
2018-09-21T19:07:25.046Z,1.43
2018-09-21T19:09:53.647Z,1.57
2018-09-21T19:12:22.269Z,1.30
2018-09-21T19:14:50.848Z,1.20
2018-09-21T19:17:19.462Z,1.33
2018-09-21T19:19:48.050Z,1.50
2018-09-21T19:22:16.678Z,1.20
2018-09-21T19:24:45.275Z,1.67
2018-09-21T19:27:13.884Z,1.93
2018-09-21T19:29:42.476Z,1.20
2018-09-21T19:32:11.186Z,1.23
2018-09-21T19:34:39.773Z,1.17
2018-09-21T19:37:08.378Z,1.27
2018-09-21T19:39:36.963Z,1.40
2018-09-21T19:42:05.574Z,1.20
2018-09-21T19:44:34.185Z,1.03
2018-09-21T19:47:02.784Z,1.10
2018-09-21T19:49:31.410Z,1.20
2018-09-21T19:52:00.005Z,0.80
2018-09-21T19:54:28.709Z,1.20
2018-09-21T19:56:57.249Z,1.13
2018-09-21T19:59:25.851Z,1.20
2018-09-21T20:01:54.451Z,0.90
2018-09-21T20:04:23.096Z,1.07
2018-09-21T20:06:51.699Z,1.00
2018-09-21T20:09:20.319Z,1.10
2018-09-21T20:11:48.925Z,1.23
2018-09-21T20:14:17.545Z,1.10
2018-09-21T20:16:46.158Z,1.20
2018-09-21T20:19:14.770Z,1.10
2018-09-21T20:21:43.354Z,1.47
2018-09-21T20:24:11.983Z,1.40
2018-09-21T20:26:40.586Z,1.80
2018-09-21T20:29:09.267Z,1.30
2018-09-21T20:31:43.079Z,1.03
2018-09-21T20:34:11.707Z,1.10
2018-09-21T20:36:40.303Z,1.40
2018-09-21T20:39:09.491Z,1.20
2018-09-21T20:41:38.116Z,1.53
2018-09-21T20:44:06.817Z,1.40
2018-09-21T20:46:35.420Z,1.87
2018-09-21T20:49:04.049Z,1.37
2018-09-21T20:51:32.660Z,1.40
2018-09-21T20:54:01.305Z,1.00
2018-09-21T20:56:29.903Z,1.10
2018-09-21T20:58:58.592Z,1.30
2018-09-21T21:01:27.216Z,0.90
2018-09-21T21:03:55.825Z,1.00
2018-09-21T21:06:24.415Z,1.10
2018-09-21T21:08:53.031Z,1.00
2018-09-21T21:11:21.690Z,0.90
2018-09-21T21:13:50.299Z,0.70
2018-09-21T21:16:19.001Z,0.70
2018-09-21T21:18:47.597Z,0.60
2018-09-21T21:21:16.232Z,0.83
2018-09-21T21:23:44.825Z,0.80
2018-09-21T21:26:13.450Z,0.60
2018-09-21T21:28:42.050Z,0.50
2018-09-21T21:31:10.701Z,0.67
2018-09-21T21:33:39.306Z,0.50
2018-09-21T21:36:08.234Z,0.60
2018-09-21T21:38:37.040Z,0.60
2018-09-21T21:41:05.661Z,0.60
2018-09-21T21:43:34.259Z,0.57
2018-09-21T21:46:03.044Z,0.50
2018-09-21T21:48:31.618Z,0.60
2018-09-21T21:51:00.256Z,0.60
2018-09-21T21:53:28.872Z,0.60
2018-09-21T21:55:57.491Z,0.50
2018-09-21T21:58:26.082Z,0.50
2018-09-21T22:01:00.059Z,0.50
2018-09-21T22:03:28.690Z,0.57
2018-09-21T22:05:57.314Z,0.50
2018-09-21T22:08:25.917Z,0.50
2018-09-21T22:10:54.582Z,0.50
2018-09-21T22:13:28.408Z,0.60
2018-09-21T22:15:57.010Z,0.60
2018-09-21T22:18:25.596Z,0.50
2018-09-21T22:20:54.215Z,0.50
2018-09-21T22:23:22.810Z,0.60
2018-09-21T22:25:51.415Z,0.60
2018-09-21T22:28:20.011Z,0.53
2018-09-21T22:30:48.800Z,0.50
2018-09-21T22:33:17.425Z,0.50
2018-09-21T22:35:46.045Z,0.60
2018-09-21T22:38:14.671Z,0.50
2018-09-21T22:40:43.402Z,0.50
2018-09-21T22:43:11.967Z,0.50
2018-09-21T22:45:40.566Z,0.53
2018-09-21T22:48:09.142Z,0.60
2018-09-21T22:50:37.755Z,0.57
2018-09-21T22:53:06.625Z,0.60
2018-09-21T22:55:35.223Z,0.50
2018-09-21T22:58:03.812Z,0.50
2018-09-21T23:00:32.449Z,0.60
2018-09-21T23:03:01.046Z,0.60
2018-09-21T23:05:29.649Z,0.60
2018-09-21T23:07:58.240Z,0.50
2018-09-21T23:10:26.845Z,0.60
2018-09-21T23:12:55.415Z,0.60
2018-09-21T23:15:24.025Z,0.60
2018-09-21T23:17:52.614Z,0.50
2018-09-21T23:20:21.231Z,0.60
2018-09-21T23:22:49.836Z,0.50
2018-09-21T23:25:18.428Z,0.57
2018-09-21T23:27:47.043Z,0.60
2018-09-21T23:30:15.634Z,0.70
2018-09-21T23:32:44.271Z,0.70
2018-09-21T23:35:12.878Z,0.73
2018-09-21T23:37:41.479Z,0.60
2018-09-21T23:40:10.076Z,0.60
2018-09-21T23:42:38.717Z,0.70
2018-09-21T23:45:07.490Z,0.90
2018-09-21T23:47:36.119Z,0.60
2018-09-21T23:50:04.739Z,0.70
2018-09-21T23:52:33.346Z,0.70
2018-09-21T23:55:01.962Z,0.60
2018-09-21T23:57:30.559Z,0.77
2018-09-21T23:59:59.159Z,0.70
